Terminal Aerodrome Forecast
Issued by NWS

Home | Current Version | Previous Version | Text Only | Print | Product List | Glossary Off
Versions: 1 2 3 4 5 6 7 8 9 10 11 12 13 14 15 16 17 18 19 20

741
FTUS43 KIWX 191120
TAFSBN
TAF
KSBN 191120Z 1912/2012 18005KT 3SM BR OVC004
     FM191400 17006KT 6SM BR OVC008
     FM191600 15006KT P6SM SCT015 OVC120
      TEMPO 1916/1919 3SM BR BKN015
     FM200100 11005KT 3SM -RA BR OVC012
     FM200400 10006KT 2SM RA BR OVC006
     FM200600 08006KT 1 1/2SM -RA BR OVC004=

USA.gov is the U.S. government's official web portal to all federal, state and local government web resources and services.